createdAt,value
2022-12-20T00:01:34.115Z,99097.50
2022-12-20T00:04:05.966Z,99109.81
2022-12-20T00:06:35.859Z,99105.97
2022-12-20T00:09:06.044Z,99105.50
2022-12-20T00:11:33.890Z,99107.41
2022-12-20T00:14:01.008Z,99103.00
2022-12-20T00:16:30.004Z,99099.16
2022-12-20T00:19:02.375Z,99093.53
2022-12-20T00:21:30.413Z,99098.41
2022-12-20T00:23:57.812Z,99107.41
2022-12-20T00:26:28.032Z,99101.19
2022-12-20T00:28:55.286Z,99093.47
2022-12-20T00:31:24.908Z,99088.53
2022-12-20T00:33:55.184Z,99094.69
2022-12-20T00:36:24.276Z,99085.31
2022-12-20T00:38:53.190Z,99082.06
2022-12-20T00:41:23.265Z,99082.72
2022-12-20T00:43:50.506Z,99085.75
2022-12-20T00:46:19.773Z,99091.72
2022-12-20T00:48:47.320Z,99081.69
2022-12-20T00:51:17.807Z,99075.34
2022-12-20T00:53:45.750Z,99066.06
2022-12-20T00:56:13.202Z,99064.59
2022-12-20T00:58:42.959Z,99063.09
2022-12-20T01:01:20.648Z,99060.78
2022-12-20T01:03:48.018Z,99059.94
2022-12-20T01:06:15.225Z,99061.88
2022-12-20T01:08:42.440Z,99052.25
2022-12-20T01:11:32.557Z,99054.28
2022-12-20T01:14:03.957Z,99061.06
2022-12-20T01:16:38.191Z,99062.53
2022-12-20T01:19:07.027Z,99070.81
2022-12-20T01:21:34.377Z,99079.09
2022-12-20T01:24:01.391Z,99082.78
2022-12-20T01:26:30.507Z,99090.28
2022-12-20T01:29:00.324Z,99090.59
2022-12-20T01:31:29.582Z,99091.31
2022-12-20T01:33:57.256Z,99084.97
2022-12-20T01:36:26.861Z,99082.78
2022-12-20T01:39:01.312Z,99081.75
2022-12-20T01:41:29.891Z,99083.66
2022-12-20T01:44:19.316Z,99091.03
2022-12-20T01:46:48.566Z,99103.00
2022-12-20T01:49:46.587Z,99109.81
2022-12-20T01:52:18.965Z,99121.50
2022-12-20T01:54:52.256Z,99119.53
2022-12-20T01:57:25.208Z,99130.78
2022-12-20T01:59:54.442Z,99140.25
2022-12-20T02:02:21.709Z,99142.16
2022-12-20T02:04:48.842Z,99149.44
2022-12-20T02:07:22.075Z,99159.81
2022-12-20T02:09:49.999Z,99151.72
2022-12-20T02:12:30.622Z,99154.25
2022-12-20T02:15:22.774Z,99157.53
2022-12-20T02:18:07.937Z,99148.56
2022-12-20T02:20:49.502Z,99140.44
2022-12-20T02:23:46.992Z,99133.06
2022-12-20T02:26:31.337Z,99129.84
2022-12-20T02:29:23.001Z,99125.88
2022-12-20T02:32:01.045Z,99124.41
2022-12-20T02:34:30.668Z,99121.00
2022-12-20T02:36:57.709Z,99121.84
2022-12-20T02:39:27.020Z,99118.47
2022-12-20T02:42:08.124Z,99118.34
2022-12-20T02:44:57.906Z,99115.38
2022-12-20T02:47:31.502Z,99116.72
2022-12-20T02:49:58.689Z,99119.38
2022-12-20T02:52:28.184Z,99119.22
2022-12-20T02:54:56.004Z,99109.16
2022-12-20T02:57:45.742Z,99118.91
2022-12-20T03:00:19.548Z,99111.34
2022-12-20T03:03:07.077Z,99102.00
2022-12-20T03:05:38.069Z,99100.81
2022-12-20T03:08:05.198Z,99095.75
2022-12-20T03:10:32.514Z,99085.69
2022-12-20T03:12:59.500Z,99074.84
2022-12-20T03:15:26.556Z,99059.63
2022-12-20T03:17:54.049Z,99059.13
2022-12-20T03:20:21.170Z,99069.34
2022-12-20T03:22:48.276Z,99060.63
2022-12-20T03:25:15.596Z,99055.59
2022-12-20T03:27:42.710Z,99054.84
2022-12-20T03:30:10.123Z,99046.09
2022-12-20T03:32:37.627Z,99044.19
2022-12-20T03:35:05.285Z,99036.00
2022-12-20T03:37:32.333Z,99044.72
2022-12-20T03:39:59.420Z,99041.31
2022-12-20T03:42:26.457Z,99042.31
2022-12-20T03:44:53.555Z,99048.22
2022-12-20T03:47:20.921Z,99042.72
2022-12-20T03:49:47.987Z,99046.41
2022-12-20T03:52:15.573Z,99046.41
2022-12-20T03:54:42.727Z,99044.75
2022-12-20T03:57:09.804Z,99049.34
2022-12-20T03:59:36.937Z,99050.81
2022-12-20T04:02:04.487Z,99043.75
2022-12-20T04:04:31.901Z,99032.06
2022-12-20T04:06:59.013Z,99036.50
2022-12-20T04:09:26.115Z,99026.38
2022-12-20T04:11:53.203Z,99024.16
2022-12-20T04:14:20.293Z,99021.22
2022-12-20T04:16:47.372Z,99007.97
2022-12-20T04:19:14.458Z,99016.31
2022-12-20T04:21:43.210Z,99014.59
2022-12-20T04:24:10.849Z,99018.16
2022-12-20T04:26:38.113Z,99022.31
2022-12-20T04:29:05.619Z,99042.69
2022-12-20T04:31:32.898Z,99047.09
2022-12-20T04:33:59.983Z,99057.44
2022-12-20T04:36:27.318Z,99062.84
2022-12-20T04:38:54.325Z,99071.94
2022-12-20T04:41:24.333Z,99083.00
2022-12-20T04:43:55.580Z,99086.50
2022-12-20T04:46:23.772Z,99084.13
2022-12-20T04:48:59.514Z,99093.31
2022-12-20T04:51:28.809Z,99101.59
2022-12-20T04:53:56.418Z,99110.78
2022-12-20T04:56:28.815Z,99111.25
2022-12-20T04:58:58.874Z,99126.22
2022-12-20T05:01:26.610Z,99126.22
2022-12-20T05:03:54.241Z,99125.69
2022-12-20T05:06:21.647Z,99117.56
2022-12-20T05:08:49.103Z,99119.84
2022-12-20T05:11:16.292Z,99118.09
2022-12-20T05:13:43.488Z,99114.56
2022-12-20T05:16:10.983Z,99111.06
2022-12-20T05:18:43.023Z,99105.19
2022-12-20T05:21:32.231Z,99105.72
2022-12-20T05:24:17.987Z,99100.25
2022-12-20T05:26:45.090Z,99097.41
2022-12-20T05:29:12.122Z,99103.63
2022-12-20T05:31:39.336Z,99098.66
2022-12-20T05:34:06.602Z,99089.19
2022-12-20T05:36:33.708Z,99090.22
2022-12-20T05:39:04.333Z,99084.41
2022-12-20T05:41:32.439Z,99088.84
2022-12-20T05:43:59.459Z,99083.78
2022-12-20T05:46:26.958Z,99087.47
2022-12-20T05:48:54.018Z,99089.66
2022-12-20T05:51:21.183Z,99081.22
2022-12-20T05:53:48.239Z,99083.44
2022-12-20T05:56:15.368Z,99080.78
2022-12-20T05:58:42.557Z,99070.41
2022-12-20T06:01:10.704Z,99080.78
2022-12-20T06:03:39.291Z,99069.56
2022-12-20T06:06:13.919Z,99056.88
2022-12-20T06:08:42.175Z,99053.59
2022-12-20T06:11:09.289Z,99060.44
2022-12-20T06:13:36.357Z,99052.44
2022-12-20T06:16:03.644Z,99065.50
2022-12-20T06:18:30.883Z,99068.03
2022-12-20T06:20:58.411Z,99066.03
2022-12-20T06:23:25.858Z,99067.94
2022-12-20T06:25:53.167Z,99073.28
2022-12-20T06:28:22.457Z,99072.06
2022-12-20T06:30:57.171Z,99080.34
2022-12-20T06:33:24.762Z,99087.63
2022-12-20T06:35:52.822Z,99097.81
2022-12-20T06:38:19.924Z,99098.28
2022-12-20T06:40:47.084Z,99094.31
2022-12-20T06:43:14.167Z,99099.53
2022-12-20T06:45:42.071Z,99105.47
2022-12-20T06:48:10.339Z,99093.69
2022-12-20T06:50:40.997Z,99087.34
2022-12-20T06:53:08.599Z,99095.34
2022-12-20T06:55:35.681Z,99107.16
2022-12-20T06:58:04.478Z,99119.72
2022-12-20T07:00:31.986Z,99145.66
2022-12-20T07:02:59.678Z,99172.84
2022-12-20T07:05:26.863Z,99185.38
2022-12-20T07:07:53.913Z,99175.28
2022-12-20T07:10:21.149Z,99173.94
2022-12-20T07:12:48.694Z,99169.19
2022-12-20T07:15:16.867Z,99170.94
2022-12-20T07:17:44.396Z,99160.56
2022-12-20T07:23:00.484Z,99141.75
2022-12-20T07:25:27.565Z,99145.25
2022-12-20T07:27:54.632Z,99134.59
2022-12-20T07:30:22.112Z,99131.63
2022-12-20T07:32:49.255Z,99139.81
2022-12-20T07:35:16.785Z,99143.38
2022-12-20T07:37:44.170Z,99154.97
2022-12-20T07:40:12.333Z,99161.00
2022-12-20T07:42:43.003Z,99160.56
2022-12-20T07:45:13.597Z,99159.63
2022-12-20T07:47:41.024Z,99169.88
2022-12-20T07:50:08.930Z,99176.50
2022-12-20T07:52:41.770Z,99184.81
2022-12-20T07:55:10.997Z,99186.06
2022-12-20T07:57:46.256Z,99188.28
2022-12-20T08:00:14.487Z,99198.94
2022-12-20T08:02:51.314Z,99203.72
2022-12-20T08:05:18.700Z,99213.81
2022-12-20T08:07:47.233Z,99215.91
2022-12-20T08:10:16.448Z,99218.25
2022-12-20T08:12:45.502Z,99215.34
2022-12-20T08:15:12.707Z,99224.69
2022-12-20T08:17:39.894Z,99224.53
2022-12-20T08:20:08.952Z,99230.88
2022-12-20T08:22:36.122Z,99227.19
2022-12-20T08:25:03.267Z,99230.28
2022-12-20T08:27:30.334Z,99231.50
2022-12-20T08:29:57.361Z,99228.97
2022-12-20T08:32:24.621Z,99242.03
2022-12-20T08:34:53.307Z,99233.00
2022-12-20T08:37:20.488Z,99233.88
2022-12-20T08:39:47.500Z,99236.13
2022-12-20T08:42:14.964Z,99247.34
2022-12-20T08:44:42.288Z,99247.50
2022-12-20T08:47:09.432Z,99256.22
2022-12-20T08:49:40.012Z,99255.31
2022-12-20T08:52:09.894Z,99265.81
2022-12-20T08:54:37.115Z,99258.81
2022-12-20T08:57:04.307Z,99256.47
2022-12-20T08:59:32.102Z,99276.84
2022-12-20T09:01:59.200Z,99272.69
2022-12-20T09:04:26.549Z,99273.25
2022-12-20T09:06:53.910Z,99290.53
2022-12-20T09:09:23.614Z,99296.31
2022-12-20T09:11:50.775Z,99303.06
2022-12-20T09:14:19.024Z,99313.75
2022-12-20T09:16:46.155Z,99318.66
2022-12-20T09:19:14.707Z,99314.78
2022-12-20T09:21:41.823Z,99322.03
2022-12-20T09:24:09.757Z,99318.47
2022-12-20T09:26:37.267Z,99321.44
2022-12-20T09:29:06.025Z,99320.53
2022-12-20T09:31:33.142Z,99315.00
2022-12-20T09:34:01.376Z,99319.16
2022-12-20T09:36:30.656Z,99324.31
2022-12-20T09:38:58.305Z,99332.91
2022-12-20T09:41:37.519Z,99338.81
2022-12-20T09:44:24.487Z,99331.09
2022-12-20T09:46:56.649Z,99335.81
2022-12-20T09:49:29.047Z,99336.06
2022-12-20T09:52:16.328Z,99333.69
2022-12-20T09:55:11.184Z,99336.63
2022-12-20T09:58:08.687Z,99341.34
2022-12-20T10:00:40.861Z,99348.56
2022-12-20T10:03:14.598Z,99355.28
2022-12-20T10:05:52.522Z,99349.69
2022-12-20T10:08:28.662Z,99351.00
2022-12-20T10:11:06.172Z,99355.97
2022-12-20T10:13:55.905Z,99360.41
2022-12-20T10:16:42.901Z,99352.50
2022-12-20T10:19:25.185Z,99355.28
2022-12-20T10:22:17.812Z,99362.66
2022-12-20T10:25:14.006Z,99363.56
2022-12-20T10:27:53.779Z,99361.38
2022-12-20T10:30:24.464Z,99358.59
2022-12-20T10:32:54.151Z,99347.72
2022-12-20T10:35:34.639Z,99331.13
2022-12-20T10:38:08.700Z,99321.00
2022-12-20T10:43:36.394Z,99302.69
2022-12-20T10:46:08.371Z,99295.50
2022-12-20T10:48:37.057Z,99288.06
2022-12-20T10:51:15.351Z,99289.84
2022-12-20T10:53:58.411Z,99290.56
2022-12-20T10:56:39.174Z,99288.16
2022-12-20T10:59:18.214Z,99284.75
2022-12-20T11:01:47.476Z,99291.56
2022-12-20T11:04:38.885Z,99284.56
2022-12-20T11:07:25.383Z,99284.56
2022-12-20T11:09:59.805Z,99284.84
2022-12-20T11:12:27.335Z,99280.06
2022-12-20T11:15:20.226Z,99281.34
2022-12-20T11:17:53.272Z,99274.09
2022-12-20T11:20:45.267Z,99276.78
2022-12-20T11:23:31.423Z,99277.94
2022-12-20T11:26:30.008Z,99271.31
2022-12-20T11:29:30.998Z,99265.59
2022-12-20T11:32:03.915Z,99262.09
2022-12-20T11:34:45.360Z,99263.84
2022-12-20T11:37:31.822Z,99260.81
2022-12-20T11:40:23.530Z,99255.25
2022-12-20T11:43:15.425Z,99245.31
2022-12-20T11:45:56.010Z,99241.22
2022-12-20T11:48:28.754Z,99247.22
2022-12-20T11:51:24.475Z,99247.09
2022-12-20T11:54:20.169Z,99271.78
2022-12-20T11:56:51.321Z,99286.75
2022-12-20T11:59:35.380Z,99287.47
2022-12-20T12:02:08.270Z,99297.69
2022-12-20T12:04:50.647Z,99307.56
2022-12-20T12:07:24.403Z,99320.09
2022-12-20T12:10:14.254Z,99319.25
2022-12-20T12:12:45.224Z,99326.34
2022-12-20T12:15:37.230Z,99337.97
2022-12-20T12:18:17.328Z,99337.78
2022-12-20T12:21:09.395Z,99330.97
2022-12-20T12:23:50.169Z,99328.56
2022-12-20T12:26:28.759Z,99318.25
2022-12-20T12:29:01.852Z,99307.94
2022-12-20T12:31:56.522Z,99297.25
2022-12-20T12:34:45.735Z,99286.19
2022-12-20T12:37:21.828Z,99273.13
2022-12-20T12:40:26.621Z,99266.09
2022-12-20T12:43:25.962Z,99273.78
2022-12-20T12:45:58.299Z,99265.75
2022-12-20T12:48:40.929Z,99262.69
2022-12-20T12:51:08.869Z,99260.38
2022-12-20T12:53:50.450Z,99251.75
2022-12-20T12:56:48.802Z,99252.31
2022-12-20T12:59:40.251Z,99244.81
2022-12-20T13:02:16.839Z,99241.50
2022-12-20T13:04:58.488Z,99236.13
2022-12-20T13:07:27.323Z,99233.97
2022-12-20T13:09:54.354Z,99232.88
2022-12-20T13:12:39.955Z,99234.78
2022-12-20T13:15:22.311Z,99229.72
2022-12-20T13:18:00.682Z,99228.09
2022-12-20T13:20:32.171Z,99225.66
2022-12-20T13:23:08.523Z,99215.16
2022-12-20T13:25:38.099Z,99207.00
2022-12-20T13:28:17.179Z,99194.53
2022-12-20T13:30:45.848Z,99191.88
2022-12-20T13:33:48.380Z,99184.81
2022-12-20T13:36:35.520Z,99184.13
2022-12-20T13:39:24.378Z,99185.47
2022-12-20T13:42:16.391Z,99183.59
2022-12-20T13:44:48.102Z,99181.75
2022-12-20T13:47:30.150Z,99178.28
2022-12-20T13:50:02.190Z,99168.09
2022-12-20T13:52:32.239Z,99155.25
2022-12-20T13:55:04.169Z,99150.56
2022-12-20T13:57:34.029Z,99153.75
2022-12-20T14:00:07.483Z,99155.00
2022-12-20T14:02:40.907Z,99143.81
2022-12-20T14:05:29.469Z,99149.16
2022-12-20T14:08:01.268Z,99142.53
2022-12-20T14:10:30.556Z,99142.09
2022-12-20T14:12:58.455Z,99146.25
2022-12-20T14:15:34.151Z,99139.19
2022-12-20T14:18:18.187Z,99142.88
2022-12-20T14:20:45.625Z,99136.28
2022-12-20T14:23:20.184Z,99135.34
2022-12-20T14:25:59.595Z,99132.44
2022-12-20T14:28:45.989Z,99128.44
2022-12-20T14:31:27.105Z,99128.72
2022-12-20T14:34:06.438Z,99126.06
2022-12-20T14:36:34.785Z,99130.69
2022-12-20T14:39:01.919Z,99140.97
2022-12-20T14:41:41.312Z,99140.78
2022-12-20T14:44:08.460Z,99144.94
2022-12-20T14:46:37.373Z,99153.19
2022-12-20T14:49:19.443Z,99158.09
2022-12-20T14:51:47.249Z,99158.34
2022-12-20T14:54:47.706Z,99164.03
2022-12-20T14:57:12.290Z,99170.66
2022-12-20T14:59:39.443Z,99166.75
2022-12-20T15:02:39.774Z,99169.19
2022-12-20T15:05:32.895Z,99175.81
2022-12-20T15:08:27.611Z,99177.50
2022-12-20T15:11:01.932Z,99174.13
2022-12-20T15:13:35.056Z,99176.72
2022-12-20T15:16:04.973Z,99180.84
2022-12-20T15:18:32.970Z,99180.19
2022-12-20T15:21:12.912Z,99169.13
2022-12-20T15:23:48.914Z,99172.13
2022-12-20T15:26:16.902Z,99162.69
2022-12-20T15:28:44.219Z,99161.97
2022-12-20T15:31:13.375Z,99157.84
2022-12-20T15:33:41.944Z,99162.50
2022-12-20T15:36:17.391Z,99165.00
2022-12-20T15:39:11.239Z,99169.13
2022-12-20T15:41:34.144Z,99164.13
2022-12-20T15:44:06.252Z,99163.09
2022-12-20T15:46:33.724Z,99165.75
2022-12-20T15:49:00.781Z,99181.31
2022-12-20T15:51:30.481Z,99178.31
2022-12-20T15:53:58.435Z,99182.97
2022-12-20T15:56:27.494Z,99175.22
2022-12-20T15:58:54.797Z,99174.31
2022-12-20T16:01:25.888Z,99180.00
2022-12-20T16:03:53.286Z,99173.72
2022-12-20T16:06:20.629Z,99179.53
2022-12-20T16:08:47.822Z,99184.72
2022-12-20T16:11:25.337Z,99187.41
2022-12-20T16:13:52.395Z,99191.06
2022-12-20T16:16:21.864Z,99191.81
2022-12-20T16:18:49.255Z,99192.03
2022-12-20T16:21:22.593Z,99192.03
2022-12-20T16:23:51.140Z,99204.13
2022-12-20T16:26:21.531Z,99205.28
2022-12-20T16:28:49.832Z,99210.41
2022-12-20T16:31:33.390Z,99195.38
2022-12-20T16:34:03.324Z,99191.81
2022-12-20T16:36:30.536Z,99183.31
2022-12-20T16:38:57.812Z,99177.00
2022-12-20T16:41:30.279Z,99167.25
2022-12-20T16:43:59.546Z,99163.13
2022-12-20T16:46:29.179Z,99163.38
2022-12-20T16:48:57.628Z,99153.88
2022-12-20T16:51:31.883Z,99157.00
2022-12-20T16:54:18.974Z,99144.50
2022-12-20T16:56:48.502Z,99145.44
2022-12-20T16:59:21.622Z,99151.59
2022-12-20T17:01:52.939Z,99151.84
2022-12-20T17:04:21.016Z,99154.78
2022-12-20T17:06:48.242Z,99159.69
2022-12-20T17:09:16.545Z,99157.25
2022-12-20T17:11:43.835Z,99157.69
2022-12-20T17:14:13.305Z,99161.78
2022-12-20T17:16:41.437Z,99160.31
2022-12-20T17:19:11.039Z,99152.06
2022-12-20T17:24:34.350Z,99170.47
2022-12-20T17:27:01.347Z,99176.25
2022-12-20T17:29:28.382Z,99191.28
2022-12-20T17:31:55.688Z,99197.78
2022-12-20T17:34:28.873Z,99206.16
2022-12-20T17:36:57.289Z,99208.25
2022-12-20T17:39:25.701Z,99213.31
2022-12-20T17:41:54.303Z,99221.06
2022-12-20T17:44:27.283Z,99219.47
2022-12-20T17:46:56.264Z,99230.38
2022-12-20T17:49:24.528Z,99231.84
2022-12-20T17:51:52.083Z,99233.31
2022-12-20T17:54:26.582Z,99227.16
2022-12-20T17:56:54.137Z,99229.31
2022-12-20T17:59:22.699Z,99228.78
2022-12-20T18:01:50.268Z,99229.44
2022-12-20T18:04:17.838Z,99236.94
2022-12-20T18:06:46.020Z,99238.38
2022-12-20T18:09:18.993Z,99234.44
2022-12-20T18:11:46.555Z,99236.28
2022-12-20T18:14:14.182Z,99237.63
2022-12-20T18:16:41.850Z,99246.06
2022-12-20T18:19:14.736Z,99240.44
2022-12-20T18:21:42.142Z,99241.34
2022-12-20T18:24:13.418Z,99243.25
2022-12-20T18:26:41.075Z,99246.56
2022-12-20T18:29:08.404Z,99256.00
2022-12-20T18:31:35.711Z,99255.50
2022-12-20T18:34:03.879Z,99262.78
2022-12-20T18:36:36.027Z,99261.56
2022-12-20T18:39:06.365Z,99264.97
2022-12-20T18:41:34.861Z,99262.31
2022-12-20T18:44:06.964Z,99270.63
2022-12-20T18:46:34.286Z,99261.09
2022-12-20T18:49:02.011Z,99265.69
2022-12-20T18:51:31.749Z,99259.66
2022-12-20T18:54:00.127Z,99263.53
2022-12-20T18:56:33.239Z,99258.91
2022-12-20T18:59:09.956Z,99258.19
2022-12-20T19:01:39.670Z,99261.75
2022-12-20T19:04:08.035Z,99256.34
2022-12-20T19:06:36.365Z,99264.03
2022-12-20T19:09:06.114Z,99261.69
2022-12-20T19:11:33.908Z,99261.91
2022-12-20T19:14:01.197Z,99271.38
2022-12-20T19:16:32.365Z,99267.97
2022-12-20T19:19:00.986Z,99268.91
2022-12-20T19:21:30.649Z,99276.66
2022-12-20T19:24:00.625Z,99279.78
2022-12-20T19:26:28.736Z,99272.97
2022-12-20T19:28:57.116Z,99268.34
2022-12-20T19:31:26.970Z,99271.03
2022-12-20T19:34:02.512Z,99256.94
2022-12-20T19:36:44.731Z,99270.19
2022-12-20T19:39:23.330Z,99284.78
2022-12-20T19:42:21.705Z,99278.56
2022-12-20T19:44:38.213Z,99278.66
2022-12-20T19:47:05.845Z,99273.97
2022-12-20T19:49:33.418Z,99274.44
2022-12-20T19:52:00.486Z,99284.38
2022-12-20T19:54:27.610Z,99279.03
2022-12-20T19:56:54.891Z,99282.72
2022-12-20T19:59:22.091Z,99287.31
2022-12-20T20:01:49.273Z,99292.66
2022-12-20T20:04:16.619Z,99289.97
2022-12-20T20:06:43.800Z,99291.75
2022-12-20T20:09:11.114Z,99294.63
2022-12-20T20:11:38.173Z,99297.72
2022-12-20T20:14:05.833Z,99301.88
2022-12-20T20:16:33.069Z,99310.91
2022-12-20T20:19:00.234Z,99317.72
2022-12-20T20:21:27.497Z,99313.66
2022-12-20T20:23:55.633Z,99325.56
2022-12-20T20:26:25.987Z,99323.25
2022-12-20T20:28:53.581Z,99334.25
2022-12-20T20:31:22.810Z,99335.47
2022-12-20T20:33:50.466Z,99341.56
2022-12-20T20:36:20.406Z,99350.38
2022-12-20T20:38:47.825Z,99341.22
2022-12-20T20:41:15.141Z,99350.06
2022-12-20T20:43:43.276Z,99346.91
2022-12-20T20:46:13.683Z,99356.69
2022-12-20T20:48:40.973Z,99358.72
2022-12-20T20:51:08.156Z,99358.72
2022-12-20T20:53:35.702Z,99355.78
2022-12-20T20:56:03.824Z,99358.53
2022-12-20T20:58:31.644Z,99364.91
2022-12-20T21:01:00.654Z,99362.22
2022-12-20T21:03:29.005Z,99368.47
2022-12-20T21:08:43.685Z,99373.16
2022-12-20T21:11:11.866Z,99373.31
2022-12-20T21:13:39.053Z,99369.44
2022-12-20T21:16:21.068Z,99374.03
2022-12-20T21:18:56.142Z,99369.13
2022-12-20T21:21:24.808Z,99371.53
2022-12-20T21:23:53.184Z,99374.22
2022-12-20T21:26:22.330Z,99374.41
2022-12-20T21:28:49.439Z,99390.84
2022-12-20T21:31:18.767Z,99376.78
2022-12-20T21:33:46.509Z,99385.97
2022-12-20T21:36:18.652Z,99390.28
2022-12-20T21:38:54.179Z,99397.84
2022-12-20T21:41:26.384Z,99397.56
2022-12-20T21:43:58.499Z,99397.56
2022-12-20T21:46:27.270Z,99400.66
2022-12-20T21:48:54.833Z,99409.16
2022-12-20T21:51:24.196Z,99413.28
2022-12-20T21:53:54.774Z,99409.16
2022-12-20T21:56:22.948Z,99414.66
2022-12-20T21:58:51.053Z,99409.50
2022-12-20T22:01:21.101Z,99414.09
2022-12-20T22:03:57.780Z,99418.38
2022-12-20T22:06:25.923Z,99419.59
2022-12-20T22:08:52.970Z,99418.38
2022-12-20T22:11:20.084Z,99423.28
2022-12-20T22:13:47.611Z,99421.25
2022-12-20T22:16:21.483Z,99426.75
2022-12-20T22:18:50.509Z,99431.50
2022-12-20T22:21:18.870Z,99437.75
2022-12-20T22:23:46.101Z,99441.63
2022-12-20T22:26:16.177Z,99432.56
2022-12-20T22:28:51.988Z,99438.63
2022-12-20T22:31:20.038Z,99439.38
2022-12-20T22:33:47.295Z,99439.66
2022-12-20T22:36:16.810Z,99440.41
2022-12-20T22:38:45.036Z,99442.78
2022-12-20T22:41:14.782Z,99453.19
2022-12-20T22:43:44.823Z,99448.72
2022-12-20T22:48:58.356Z,99442.81
2022-12-20T22:51:27.664Z,99454.66
2022-12-20T22:53:55.392Z,99443.72
2022-12-20T22:56:22.593Z,99448.34
2022-12-20T22:58:49.996Z,99447.16
2022-12-20T23:01:19.107Z,99444.94
2022-12-20T23:03:46.948Z,99446.09
2022-12-20T23:06:16.787Z,99445.38
2022-12-20T23:08:44.042Z,99444.06
2022-12-20T23:11:40.043Z,99447.00
2022-12-20T23:14:33.153Z,99444.19
2022-12-20T23:17:00.813Z,99451.44
2022-12-20T23:19:28.366Z,99447.31
2022-12-20T23:22:13.663Z,99446.41
2022-12-20T23:24:40.647Z,99442.25
2022-12-20T23:27:07.616Z,99446.09
2022-12-20T23:29:34.762Z,99449.06
2022-12-20T23:32:01.836Z,99452.94
2022-12-20T23:34:29.002Z,99445.38
2022-12-20T23:36:56.008Z,99450.00
2022-12-20T23:39:22.975Z,99451.16
2022-12-20T23:41:49.926Z,99443.16
2022-12-20T23:44:17.409Z,99438.72
2022-12-20T23:46:44.362Z,99438.44
2022-12-20T23:49:11.432Z,99438.16
2022-12-20T23:51:38.635Z,99440.53
2022-12-20T23:54:05.690Z,99434.28
2022-12-20T23:56:32.685Z,99438.72
2022-12-20T23:58:59.756Z,99440.94
